createdAt,value
2018-05-23T00:00:51.158Z,86.58
2018-05-23T00:02:44.464Z,86.05
2018-05-23T00:03:44.378Z,86.29
2018-05-23T00:05:37.660Z,86.29
2018-05-23T00:06:37.599Z,86.29
2018-05-23T00:08:30.897Z,86.48
2018-05-23T00:09:30.818Z,86.77
2018-05-23T00:11:24.097Z,86.87
2018-05-23T00:12:24.039Z,86.72
2018-05-23T00:14:17.458Z,87.44
2018-05-23T00:15:17.378Z,87.25
2018-05-23T00:17:10.660Z,87.25
2018-05-23T00:18:10.590Z,87.05
2018-05-23T00:20:03.993Z,86.77
2018-05-23T00:21:03.809Z,87.25
2018-05-23T00:22:57.109Z,86.68
2018-05-23T00:23:57.029Z,86.58
2018-05-23T00:25:50.413Z,86.58
2018-05-23T00:26:50.249Z,86.77
2018-05-23T00:28:43.549Z,86.77
2018-05-23T00:29:43.469Z,86.77
2018-05-23T00:31:36.854Z,87.05
2018-05-23T00:32:36.689Z,86.68
2018-05-23T00:34:30.002Z,87.25
2018-05-23T00:35:29.911Z,86.92
2018-05-23T00:37:23.302Z,87.40
2018-05-23T00:38:23.123Z,87.59
2018-05-23T00:40:16.430Z,87.49
2018-05-23T00:41:16.351Z,87.40
2018-05-23T00:43:09.650Z,87.44
2018-05-23T00:44:09.569Z,87.05
2018-05-23T00:46:02.856Z,87.30
2018-05-23T00:47:02.794Z,87.59
2018-05-23T00:48:56.093Z,88.17
2018-05-23T00:49:56.013Z,87.68
2018-05-23T00:51:49.440Z,87.98
2018-05-23T00:52:49.381Z,87.11
2018-05-23T00:54:42.677Z,88.07
2018-05-23T00:55:42.604Z,87.78
2018-05-23T00:57:35.869Z,87.11
2018-05-23T00:58:35.811Z,87.73
2018-05-23T01:00:29.109Z,87.49
2018-05-23T01:01:29.030Z,87.78
2018-05-23T01:03:22.330Z,87.35
2018-05-23T01:04:22.249Z,87.59
2018-05-23T01:06:15.529Z,87.01
2018-05-23T01:07:15.472Z,87.98
2018-05-23T01:09:08.769Z,88.26
2018-05-23T01:10:08.690Z,88.26
2018-05-23T01:12:01.971Z,87.98
2018-05-23T01:13:01.910Z,88.07
2018-05-23T01:14:55.209Z,88.17
2018-05-23T01:15:55.128Z,88.26
2018-05-23T01:17:48.419Z,87.49
2018-05-23T01:18:48.359Z,87.98
2018-05-23T01:20:41.657Z,88.26
2018-05-23T01:21:41.577Z,87.01
2018-05-23T01:23:34.877Z,87.35
2018-05-23T01:24:34.788Z,87.68
2018-05-23T01:26:28.181Z,87.40
2018-05-23T01:27:28.015Z,87.40
2018-05-23T01:29:21.460Z,87.98
2018-05-23T01:30:21.381Z,87.40
2018-05-23T01:32:14.663Z,86.87
2018-05-23T01:33:14.600Z,87.40
2018-05-23T01:35:07.900Z,87.54
2018-05-23T01:36:07.818Z,87.63
2018-05-23T01:38:01.090Z,86.96
2018-05-23T01:39:01.030Z,86.10
2018-05-23T01:40:54.331Z,86.19
2018-05-23T01:41:54.250Z,86.25
2018-05-23T01:43:47.552Z,86.34
2018-05-23T01:44:47.471Z,86.72
2018-05-23T01:46:40.751Z,86.63
2018-05-23T01:47:40.691Z,87.01
2018-05-23T01:49:33.994Z,87.59
2018-05-23T01:50:33.911Z,87.59
2018-05-23T01:52:27.190Z,87.68
2018-05-23T01:53:27.130Z,87.40
2018-05-23T01:55:20.535Z,87.59
2018-05-23T01:56:20.350Z,87.68
2018-05-23T01:58:13.622Z,87.44
2018-05-23T01:59:13.561Z,87.68
2018-05-23T02:01:06.862Z,87.15
2018-05-23T02:02:06.781Z,87.21
2018-05-23T02:04:00.082Z,87.49
2018-05-23T02:05:00.001Z,86.92
2018-05-23T02:06:53.436Z,87.49
2018-05-23T02:07:53.373Z,87.30
2018-05-23T02:09:46.676Z,87.40
2018-05-23T02:10:46.596Z,87.49
2018-05-23T02:12:39.878Z,87.49
2018-05-23T02:13:39.817Z,87.21
2018-05-23T02:15:33.113Z,87.44
2018-05-23T02:16:33.035Z,86.72
2018-05-23T02:18:26.322Z,86.77
2018-05-23T02:19:26.255Z,87.30
2018-05-23T02:21:19.556Z,87.30
2018-05-23T02:22:19.475Z,86.82
2018-05-23T02:24:12.852Z,87.68
2018-05-23T02:25:12.696Z,87.30
2018-05-23T02:27:05.977Z,87.98
2018-05-23T02:28:05.918Z,88.07
2018-05-23T02:29:59.346Z,88.07
2018-05-23T02:30:59.268Z,88.26
2018-05-23T02:32:52.547Z,88.17
2018-05-23T02:33:52.487Z,88.17
2018-05-23T02:35:45.777Z,88.07
2018-05-23T02:36:45.693Z,88.26
2018-05-23T02:38:38.974Z,88.74
2018-05-23T02:39:38.914Z,88.65
2018-05-23T02:41:32.215Z,89.32
2018-05-23T02:42:32.135Z,88.89
2018-05-23T02:44:25.423Z,89.32
2018-05-23T02:45:25.345Z,89.51
2018-05-23T02:47:18.617Z,89.41
2018-05-23T02:48:18.556Z,89.32
2018-05-23T02:50:11.856Z,89.89
2018-05-23T02:51:11.773Z,89.41
2018-05-23T02:53:05.158Z,89.70
2018-05-23T02:54:04.984Z,89.32
2018-05-23T02:55:58.389Z,89.41
2018-05-23T02:56:58.193Z,89.41
2018-05-23T02:58:51.465Z,90.18
2018-05-23T02:59:51.403Z,90.18
2018-05-23T03:01:44.700Z,90.08
2018-05-23T03:02:44.613Z,90.28
2018-05-23T03:04:37.911Z,90.66
2018-05-23T03:05:37.833Z,90.28
2018-05-23T03:07:31.110Z,89.89
2018-05-23T03:08:31.049Z,90.90
2018-05-23T03:10:24.446Z,90.61
2018-05-23T03:11:24.265Z,90.66
2018-05-23T03:13:17.544Z,91.00
2018-05-23T03:14:17.481Z,91.52
2018-05-23T03:16:10.769Z,90.66
2018-05-23T03:17:10.691Z,90.71
2018-05-23T03:19:03.968Z,91.38
2018-05-23T03:20:03.909Z,91.86
2018-05-23T03:21:57.197Z,92.10
2018-05-23T03:22:57.119Z,91.24
2018-05-23T03:24:50.420Z,91.24
2018-05-23T03:25:50.338Z,91.91
2018-05-23T03:27:43.611Z,91.14
2018-05-23T03:28:43.547Z,91.05
2018-05-23T03:30:36.838Z,90.66
2018-05-23T03:31:36.758Z,90.71
2018-05-23T03:33:30.029Z,91.28
2018-05-23T03:34:29.967Z,91.00
2018-05-23T03:36:23.348Z,91.09
2018-05-23T03:37:23.266Z,91.00
2018-05-23T03:39:16.537Z,91.09
2018-05-23T03:40:16.476Z,91.38
2018-05-23T03:42:09.776Z,91.86
2018-05-23T03:43:09.695Z,92.05
2018-05-23T03:45:03.098Z,91.48
2018-05-23T03:46:02.905Z,91.28
2018-05-23T03:47:56.186Z,91.67
2018-05-23T03:48:56.126Z,91.38
2018-05-23T03:50:49.528Z,91.38
2018-05-23T03:51:49.344Z,92.05
2018-05-23T03:53:42.623Z,91.86
2018-05-23T03:54:42.563Z,91.48
2018-05-23T03:56:35.967Z,91.00
2018-05-23T03:57:35.779Z,91.05
2018-05-23T03:59:29.049Z,91.14
2018-05-23T04:00:28.992Z,90.81
2018-05-23T04:02:22.392Z,90.28
2018-05-23T04:03:22.206Z,89.85
2018-05-23T04:05:15.496Z,90.37
2018-05-23T04:06:15.415Z,89.99
2018-05-23T04:08:08.798Z,90.37
2018-05-23T04:09:08.624Z,89.79
2018-05-23T04:11:01.924Z,90.08
2018-05-23T04:12:01.843Z,90.08
2018-05-23T04:13:55.125Z,89.70
2018-05-23T04:14:55.064Z,90.28
2018-05-23T04:16:48.466Z,89.32
2018-05-23T04:17:48.282Z,89.70
2018-05-23T04:19:41.562Z,89.89
2018-05-23T04:20:41.500Z,90.18
2018-05-23T04:22:34.801Z,89.89
2018-05-23T04:23:34.719Z,89.22
2018-05-23T04:25:28.017Z,89.79
2018-05-23T04:26:27.938Z,89.70
2018-05-23T04:28:21.217Z,89.22
2018-05-23T04:29:21.158Z,89.99
2018-05-23T04:31:14.559Z,89.51
2018-05-23T04:32:14.375Z,89.12
2018-05-23T04:34:07.762Z,89.12
2018-05-23T04:35:07.589Z,88.84
2018-05-23T04:37:00.874Z,88.07
2018-05-23T04:38:00.794Z,87.40
2018-05-23T04:39:54.065Z,88.07
2018-05-23T04:40:54.004Z,88.07
2018-05-23T04:42:47.349Z,85.96
2018-05-23T04:43:47.265Z,85.86
2018-05-23T04:45:40.560Z,85.71
2018-05-23T04:46:40.483Z,85.77
2018-05-23T04:48:33.752Z,85.71
2018-05-23T04:49:33.687Z,85.71
2018-05-23T04:51:26.979Z,85.91
2018-05-23T04:52:26.897Z,86.29
2018-05-23T04:54:20.282Z,85.52
2018-05-23T04:55:20.147Z,85.81
2018-05-23T04:57:13.552Z,86.58
2018-05-23T04:58:13.349Z,86.29
2018-05-23T05:00:06.638Z,86.68
2018-05-23T05:01:06.559Z,86.77
2018-05-23T05:02:59.849Z,86.96
2018-05-23T05:03:59.770Z,86.87
2018-05-23T05:05:53.060Z,86.10
2018-05-23T05:06:52.979Z,86.10
2018-05-23T05:08:46.371Z,86.87
2018-05-23T05:09:46.201Z,86.58
2018-05-23T05:11:39.488Z,86.19
2018-05-23T05:12:39.411Z,85.24
2018-05-23T05:14:32.679Z,84.85
2018-05-23T05:15:32.619Z,85.52
2018-05-23T05:17:25.911Z,85.42
2018-05-23T05:18:25.832Z,85.42
2018-05-23T05:20:19.134Z,85.42
2018-05-23T05:21:19.043Z,86.00
2018-05-23T05:23:12.315Z,85.42
2018-05-23T05:24:12.257Z,84.37
2018-05-23T05:26:05.657Z,84.03
2018-05-23T05:27:05.465Z,84.12
2018-05-23T05:28:58.738Z,83.16
2018-05-23T05:29:58.676Z,83.54
2018-05-23T05:31:51.974Z,82.87
2018-05-23T05:32:51.890Z,83.07
2018-05-23T05:34:45.160Z,81.86
2018-05-23T05:35:45.101Z,81.19
2018-05-23T05:37:38.393Z,81.53
2018-05-23T05:38:38.313Z,80.71
2018-05-23T05:40:31.605Z,80.90
2018-05-23T05:41:31.526Z,79.55
2018-05-23T05:43:24.799Z,79.75
2018-05-23T05:44:24.739Z,79.27
2018-05-23T05:46:18.042Z,76.96
2018-05-23T05:47:17.964Z,77.06
2018-05-23T05:49:11.349Z,78.30
2018-05-23T05:50:11.270Z,78.53
2018-05-23T05:52:04.563Z,77.83
2018-05-23T05:53:04.488Z,77.92
2018-05-23T05:54:57.757Z,78.88
2018-05-23T05:55:57.698Z,79.40
2018-05-23T05:57:50.993Z,78.63
2018-05-23T05:58:50.915Z,78.78
2018-05-23T06:00:44.214Z,78.53
2018-05-23T06:01:44.130Z,78.53
2018-05-23T06:03:37.443Z,78.06
2018-05-23T06:04:37.346Z,77.09
2018-05-23T06:06:30.638Z,77.58
2018-05-23T06:07:30.559Z,76.90
2018-05-23T06:09:23.832Z,78.00
2018-05-23T06:10:23.773Z,77.13
2018-05-23T06:12:17.069Z,74.25
2018-05-23T06:13:16.992Z,74.44
2018-05-23T06:15:10.317Z,73.96
2018-05-23T06:16:10.207Z,73.47
2018-05-23T06:18:03.502Z,73.38
2018-05-23T06:19:03.425Z,73.57
2018-05-23T06:20:56.831Z,73.73
2018-05-23T06:21:56.644Z,73.63
2018-05-23T06:23:50.029Z,73.25
2018-05-23T06:24:49.857Z,72.67
2018-05-23T06:26:43.151Z,72.61
2018-05-23T06:27:43.075Z,72.61
2018-05-23T06:29:36.351Z,72.74
2018-05-23T06:30:36.294Z,72.84
2018-05-23T06:32:29.586Z,71.30
2018-05-23T06:33:29.512Z,71.97
2018-05-23T06:35:22.789Z,71.72
2018-05-23T06:36:22.729Z,69.41
2018-05-23T06:38:16.020Z,69.67
2018-05-23T06:39:15.943Z,69.95
2018-05-23T06:41:09.248Z,70.82
2018-05-23T06:42:09.163Z,70.72
2018-05-23T06:44:02.442Z,70.15
2018-05-23T06:45:02.383Z,70.92
2018-05-23T06:46:55.681Z,70.47
2018-05-23T06:47:55.601Z,69.41
2018-05-23T06:49:48.878Z,68.93
2018-05-23T06:50:48.821Z,69.60
2018-05-23T06:52:42.119Z,69.12
2018-05-23T06:53:42.040Z,69.31
2018-05-23T06:55:35.338Z,70.24
2018-05-23T06:56:35.272Z,70.05
2018-05-23T06:58:28.569Z,71.20
2018-05-23T06:59:28.492Z,70.62
2018-05-23T07:01:21.791Z,70.82
2018-05-23T07:02:21.715Z,70.82
2018-05-23T07:04:14.991Z,71.46
2018-05-23T07:05:14.937Z,71.55
2018-05-23T07:07:08.231Z,71.46
2018-05-23T07:08:08.154Z,71.40
2018-05-23T07:10:01.433Z,71.75
2018-05-23T07:11:01.426Z,72.07
2018-05-23T07:12:54.667Z,70.86
2018-05-23T07:13:54.591Z,70.66
2018-05-23T07:15:47.978Z,70.34
2018-05-23T07:16:47.807Z,71.01
2018-05-23T07:18:41.106Z,70.62
2018-05-23T07:19:41.032Z,70.92
2018-05-23T07:21:34.327Z,71.30
2018-05-23T07:22:34.247Z,70.53
2018-05-23T07:24:27.545Z,71.14
2018-05-23T07:25:27.468Z,70.05
2018-05-23T07:27:20.858Z,70.18
2018-05-23T07:28:20.688Z,70.18
2018-05-23T07:30:13.985Z,69.99
2018-05-23T07:31:13.909Z,68.58
2018-05-23T07:33:07.204Z,68.54
2018-05-23T07:34:07.128Z,67.77
2018-05-23T07:36:00.432Z,68.54
2018-05-23T07:37:00.356Z,68.64
2018-05-23T07:38:53.758Z,68.58
2018-05-23T07:39:53.571Z,68.16
2018-05-23T07:41:46.863Z,67.13
2018-05-23T07:42:46.787Z,67.97
2018-05-23T07:44:40.088Z,67.33
2018-05-23T07:45:40.023Z,67.26
2018-05-23T07:47:33.352Z,65.05
2018-05-23T07:48:33.275Z,64.86
2018-05-23T07:50:26.559Z,63.82
2018-05-23T07:51:26.529Z,64.24
2018-05-23T07:53:19.801Z,63.09
2018-05-23T07:54:19.725Z,61.86
2018-05-23T07:56:14.001Z,60.89
2018-05-23T07:57:13.944Z,60.96
2018-05-23T07:59:07.246Z,61.77
2018-05-23T08:00:07.163Z,61.38
2018-05-23T08:02:00.601Z,60.61
2018-05-23T08:03:00.393Z,61.09
2018-05-23T08:04:53.670Z,60.31
2018-05-23T08:05:53.616Z,59.86
2018-05-23T08:07:47.765Z,59.06
2018-05-23T08:08:47.691Z,60.41
2018-05-23T08:10:40.969Z,60.99
2018-05-23T08:11:40.914Z,60.10
2018-05-23T08:13:34.325Z,60.96
2018-05-23T08:14:34.142Z,60.96
2018-05-23T08:16:27.536Z,61.77
2018-05-23T08:17:27.367Z,61.06
2018-05-23T08:19:20.687Z,60.31
2018-05-23T08:20:20.605Z,60.71
2018-05-23T08:22:13.896Z,60.89
2018-05-23T08:23:13.821Z,60.41
2018-05-23T08:25:07.212Z,60.31
2018-05-23T08:26:07.056Z,59.55
2018-05-23T08:28:00.367Z,60.06
2018-05-23T08:29:00.276Z,59.38
2018-05-23T08:30:53.556Z,58.90
2018-05-23T08:31:53.502Z,59.00
2018-05-23T08:33:46.806Z,60.47
2018-05-23T08:34:46.727Z,59.89
2018-05-23T08:36:40.018Z,60.18
2018-05-23T08:37:39.958Z,60.44
2018-05-23T08:39:33.352Z,60.25
2018-05-23T08:40:33.277Z,61.12
2018-05-23T08:42:26.579Z,60.25
2018-05-23T08:43:26.509Z,60.28
2018-05-23T08:45:19.896Z,59.28
2018-05-23T08:46:19.734Z,59.41
2018-05-23T08:48:13.059Z,60.25
2018-05-23T08:49:12.965Z,60.64
2018-05-23T08:51:06.245Z,60.83
2018-05-23T08:52:06.189Z,60.67
2018-05-23T08:53:59.492Z,59.80
2018-05-23T08:54:59.418Z,59.77
2018-05-23T08:56:52.700Z,60.83
2018-05-23T08:57:52.648Z,60.35
2018-05-23T08:59:45.948Z,60.44
2018-05-23T09:00:45.873Z,61.02
2018-05-23T09:02:39.178Z,60.67
2018-05-23T09:03:39.098Z,61.05
2018-05-23T09:05:32.419Z,59.99
2018-05-23T09:06:32.324Z,60.67
2018-05-23T09:08:25.626Z,59.19
2018-05-23T09:09:25.559Z,59.38
2018-05-23T09:11:18.832Z,59.38
2018-05-23T09:12:18.873Z,58.73
2018-05-23T09:14:12.189Z,55.45
2018-05-23T09:15:12.006Z,54.87
2018-05-23T09:17:05.341Z,53.74
2018-05-23T09:18:05.280Z,52.97
2018-05-23T09:19:58.581Z,54.58
2018-05-23T09:20:58.505Z,55.45
2018-05-23T09:22:51.805Z,54.77
2018-05-23T09:23:51.729Z,54.68
2018-05-23T09:25:45.124Z,54.03
2018-05-23T09:26:44.957Z,54.25
2018-05-23T09:28:38.260Z,52.80
2018-05-23T09:29:38.184Z,53.25
2018-05-23T09:31:31.469Z,52.63
2018-05-23T09:32:31.413Z,52.36
2018-05-23T09:34:24.715Z,51.20
2018-05-23T09:35:24.640Z,50.62
2018-05-23T09:37:18.034Z,50.50
2018-05-23T09:38:17.872Z,52.22
2018-05-23T09:40:11.174Z,53.28
2018-05-23T09:41:11.100Z,52.99
2018-05-23T09:43:04.411Z,51.72
2018-05-23T09:44:04.335Z,50.65
2018-05-23T09:45:57.731Z,51.50
2018-05-23T09:46:57.575Z,50.45
2018-05-23T09:48:50.888Z,49.41
2018-05-23T09:49:50.820Z,49.68
2018-05-23T09:51:44.114Z,49.70
2018-05-23T09:52:44.058Z,48.69
2018-05-23T09:54:37.373Z,50.70
2018-05-23T09:55:37.300Z,51.30
2018-05-23T09:57:30.590Z,49.10
2018-05-23T09:58:30.536Z,47.19
2018-05-23T10:00:23.842Z,46.62
2018-05-23T10:01:23.769Z,46.43
2018-05-23T10:03:17.074Z,47.67
2018-05-23T10:04:17.003Z,48.61
2018-05-23T10:06:10.379Z,47.79
2018-05-23T10:07:10.324Z,45.17
2018-05-23T10:09:03.631Z,46.39
2018-05-23T10:10:03.559Z,46.77
2018-05-23T10:11:56.846Z,46.12
2018-05-23T10:12:56.794Z,46.19
2018-05-23T10:14:50.209Z,46.60
2018-05-23T10:15:50.028Z,46.51
2018-05-23T10:17:43.423Z,46.12
2018-05-23T10:18:43.285Z,46.53
2018-05-23T10:20:36.591Z,45.20
2018-05-23T10:21:36.519Z,44.71
2018-05-23T10:23:29.824Z,45.65
2018-05-23T10:24:29.752Z,45.75
2018-05-23T10:26:23.044Z,46.58
2018-05-23T10:27:22.986Z,47.45
2018-05-23T10:29:16.289Z,46.89
2018-05-23T10:30:16.220Z,46.51
2018-05-23T10:32:09.507Z,46.53
2018-05-23T10:33:09.456Z,46.70
2018-05-23T10:35:02.761Z,47.45
2018-05-23T10:36:02.688Z,49.07
2018-05-23T10:37:56.080Z,49.82
2018-05-23T10:38:55.925Z,51.08
2018-05-23T10:40:49.337Z,50.70
2018-05-23T10:41:49.154Z,50.14
2018-05-23T10:43:43.462Z,51.08
2018-05-23T10:44:43.395Z,52.02
2018-05-23T10:46:36.776Z,53.61
2018-05-23T10:47:36.620Z,53.45
2018-05-23T10:49:30.035Z,53.28
2018-05-23T10:50:29.854Z,52.41
2018-05-23T10:52:23.242Z,52.89
2018-05-23T10:53:23.080Z,52.89
2018-05-23T10:55:16.381Z,52.12
2018-05-23T10:56:16.310Z,53.09
2018-05-23T10:58:09.593Z,52.22
2018-05-23T10:59:09.540Z,52.41
2018-05-23T11:01:02.853Z,52.87
2018-05-23T11:02:02.779Z,52.80
2018-05-23T11:03:56.085Z,51.28
2018-05-23T11:04:56.006Z,51.35
2018-05-23T11:06:49.337Z,52.61
2018-05-23T11:07:49.279Z,51.93
2018-05-23T11:09:42.581Z,53.25
2018-05-23T11:10:42.506Z,53.16
2018-05-23T11:12:35.788Z,53.25
2018-05-23T11:13:35.735Z,53.25
2018-05-23T11:15:29.037Z,53.09
2018-05-23T11:16:28.963Z,53.09
2018-05-23T11:18:22.240Z,53.25
2018-05-23T11:19:22.194Z,53.83
2018-05-23T11:21:15.490Z,53.38
2018-05-23T11:22:15.418Z,52.99
2018-05-23T11:24:08.722Z,53.38
2018-05-23T11:25:08.645Z,53.93
2018-05-23T11:27:01.927Z,54.32
2018-05-23T11:28:01.874Z,53.47
2018-05-23T11:29:55.313Z,54.71
2018-05-23T11:30:55.127Z,54.22
2018-05-23T11:32:48.513Z,54.22
2018-05-23T11:33:48.356Z,53.77
2018-05-23T11:35:41.762Z,53.31
2018-05-23T11:36:41.580Z,52.99
2018-05-23T11:38:34.869Z,53.57
2018-05-23T11:39:34.809Z,53.38
2018-05-23T11:41:28.109Z,53.57
2018-05-23T11:42:28.035Z,54.35
2018-05-23T11:44:21.446Z,53.38
2018-05-23T11:45:21.280Z,53.67
2018-05-23T11:47:14.565Z,53.19
2018-05-23T11:48:14.508Z,53.77
2018-05-23T11:50:07.807Z,53.74
2018-05-23T11:51:07.730Z,54.63
2018-05-23T11:53:01.014Z,54.41
2018-05-23T11:54:00.960Z,54.68
2018-05-23T11:55:54.260Z,54.90
2018-05-23T11:56:54.237Z,54.99
2018-05-23T11:58:47.482Z,54.77
2018-05-23T11:59:47.421Z,55.65
2018-05-23T12:01:40.729Z,55.65
2018-05-23T12:02:40.644Z,54.77
2018-05-23T12:04:33.943Z,54.80
2018-05-23T12:05:33.868Z,53.93
2018-05-23T12:07:27.150Z,54.13
2018-05-23T12:08:27.094Z,54.13
2018-05-23T12:10:20.476Z,54.41
2018-05-23T12:11:20.320Z,54.61
2018-05-23T12:13:13.601Z,53.38
2018-05-23T12:14:13.542Z,53.67
2018-05-23T12:16:06.842Z,53.57
2018-05-23T12:17:06.768Z,53.09
2018-05-23T12:19:00.158Z,52.02
2018-05-23T12:20:00.013Z,52.61
2018-05-23T12:21:53.354Z,53.28
2018-05-23T12:22:53.280Z,52.89
2018-05-23T12:24:46.584Z,52.51
2018-05-23T12:25:46.506Z,52.61
2018-05-23T12:27:39.788Z,52.12
2018-05-23T12:28:39.737Z,52.31
2018-05-23T12:30:33.034Z,52.41
2018-05-23T12:31:32.960Z,52.80
2018-05-23T12:33:26.242Z,53.77
2018-05-23T12:34:26.188Z,54.99
2018-05-23T12:36:19.488Z,55.45
2018-05-23T12:37:19.413Z,56.22
2018-05-23T12:39:12.803Z,55.65
2018-05-23T12:40:12.706Z,55.45
2018-05-23T12:42:05.940Z,55.45
2018-05-23T12:43:05.868Z,54.77
2018-05-23T12:44:59.158Z,54.51
2018-05-23T12:45:59.093Z,54.90
2018-05-23T12:47:52.486Z,53.64
2018-05-23T12:48:52.324Z,53.93
2018-05-23T12:50:45.730Z,53.38
2018-05-23T12:51:45.547Z,53.19
2018-05-23T12:53:38.834Z,53.55
2018-05-23T12:54:38.772Z,53.35
2018-05-23T12:56:32.082Z,52.41
2018-05-23T12:57:31.998Z,52.02
2018-05-23T12:59:25.400Z,51.66
2018-05-23T13:00:25.277Z,50.70
2018-05-23T13:02:18.579Z,50.98
2018-05-23T13:03:18.538Z,50.48
2018-05-23T13:05:11.805Z,49.05
2018-05-23T13:06:11.733Z,49.05
2018-05-23T13:08:05.122Z,49.15
2018-05-23T13:09:04.958Z,49.24
2018-05-23T13:10:58.259Z,48.93
2018-05-23T13:11:58.186Z,48.93
2018-05-23T13:13:51.471Z,48.18
2018-05-23T13:14:51.416Z,48.18
2018-05-23T13:16:44.719Z,47.79
2018-05-23T13:17:44.714Z,47.69
2018-05-23T13:19:37.930Z,46.73
2018-05-23T13:20:37.873Z,47.28
2018-05-23T13:22:31.175Z,48.54
2018-05-23T13:23:31.100Z,47.60
2018-05-23T13:25:24.515Z,47.19
2018-05-23T13:26:24.331Z,47.48
2018-05-23T13:28:17.612Z,46.05
2018-05-23T13:29:17.557Z,45.66
2018-05-23T13:31:10.968Z,46.83
2018-05-23T13:32:10.784Z,46.15
2018-05-23T13:34:04.075Z,46.63
2018-05-23T13:35:04.015Z,47.31
2018-05-23T13:36:57.354Z,47.69
2018-05-23T13:37:57.278Z,47.69
2018-05-23T13:39:50.563Z,46.66
2018-05-23T13:40:50.506Z,46.94
2018-05-23T13:42:43.810Z,46.56
2018-05-23T13:43:43.735Z,46.94
2018-05-23T13:45:37.035Z,46.84
2018-05-23T13:46:36.962Z,47.06
2018-05-23T13:48:30.247Z,46.48
2018-05-23T13:49:30.191Z,46.17
2018-05-23T13:51:23.492Z,45.98
2018-05-23T13:52:23.423Z,46.66
2018-05-23T13:54:16.714Z,46.84
2018-05-23T13:55:16.672Z,46.26
2018-05-23T13:57:09.964Z,45.68
2018-05-23T13:58:09.902Z,45.68
2018-05-23T14:00:03.175Z,45.49
2018-05-23T14:01:03.120Z,45.32
2018-05-23T14:02:56.538Z,44.62
2018-05-23T14:03:56.349Z,44.91
2018-05-23T14:05:49.761Z,45.98
2018-05-23T14:06:49.590Z,45.81
2018-05-23T14:08:42.872Z,44.64
2018-05-23T14:09:42.864Z,44.84
2018-05-23T14:11:36.121Z,44.53
2018-05-23T14:12:36.050Z,44.70
2018-05-23T14:14:29.333Z,45.49
2018-05-23T14:15:29.282Z,45.20
2018-05-23T14:17:22.584Z,44.62
2018-05-23T14:18:22.510Z,44.35
2018-05-23T14:20:15.792Z,44.54
2018-05-23T14:21:15.740Z,44.54
2018-05-23T14:23:09.040Z,43.58
2018-05-23T14:24:08.968Z,43.55
2018-05-23T14:26:02.270Z,44.12
2018-05-23T14:27:02.196Z,44.70
2018-05-23T14:28:55.589Z,43.82
2018-05-23T14:29:55.425Z,43.92
2018-05-23T14:31:48.727Z,43.65
2018-05-23T14:32:48.655Z,43.17
2018-05-23T14:34:42.046Z,42.78
2018-05-23T14:35:41.964Z,43.15
2018-05-23T14:37:35.183Z,43.15
2018-05-23T14:38:35.112Z,43.34
2018-05-23T14:40:28.500Z,42.57
2018-05-23T14:41:28.338Z,42.88
2018-05-23T14:43:21.671Z,41.24
2018-05-23T14:44:21.564Z,41.24
2018-05-23T14:46:14.866Z,40.94
2018-05-23T14:47:14.792Z,41.14
2018-05-23T14:49:08.093Z,42.08
2018-05-23T14:50:08.101Z,42.00
2018-05-23T14:52:01.448Z,41.82
2018-05-23T14:53:01.277Z,42.10
2018-05-23T14:54:54.583Z,41.60
2018-05-23T14:55:54.503Z,41.91
2018-05-23T14:57:47.327Z,41.82
2018-05-23T14:58:47.251Z,41.72
2018-05-23T15:00:40.533Z,41.74
2018-05-23T15:01:40.479Z,41.14
2018-05-23T15:03:33.781Z,41.24
2018-05-23T15:04:33.705Z,41.62
2018-05-23T15:06:27.598Z,41.33
2018-05-23T15:07:26.930Z,41.24
2018-05-23T15:09:21.215Z,41.06
2018-05-23T15:10:21.161Z,41.74
2018-05-23T15:12:14.458Z,41.06
2018-05-23T15:13:14.395Z,41.45
2018-05-23T15:15:07.678Z,40.67
2018-05-23T15:16:07.622Z,40.59
2018-05-23T15:18:00.935Z,40.58
2018-05-23T15:19:00.862Z,40.94
2018-05-23T15:20:54.155Z,41.04
2018-05-23T15:21:54.103Z,41.55
2018-05-23T15:23:47.406Z,41.93
2018-05-23T15:24:47.329Z,41.93
2018-05-23T15:26:40.623Z,40.86
2018-05-23T15:27:40.555Z,41.16
2018-05-23T15:29:33.838Z,40.67
2018-05-23T15:30:33.783Z,41.42
2018-05-23T15:32:27.093Z,40.96
2018-05-23T15:33:27.018Z,40.38
2018-05-23T15:35:20.405Z,39.80
2018-05-23T15:36:20.240Z,39.22
2018-05-23T15:38:13.543Z,39.11
2018-05-23T15:39:13.468Z,39.51
2018-05-23T15:41:06.750Z,37.77
2018-05-23T15:42:06.693Z,38.54
2018-05-23T15:44:00.004Z,37.38
2018-05-23T15:44:59.922Z,37.87
2018-05-23T15:46:53.223Z,37.87
2018-05-23T15:47:53.152Z,38.06
2018-05-23T15:49:46.441Z,37.96
2018-05-23T15:50:46.385Z,37.96
2018-05-23T15:52:39.698Z,38.06
2018-05-23T15:53:39.623Z,37.96
2018-05-23T15:55:32.914Z,37.67
2018-05-23T15:56:32.858Z,37.96
2018-05-23T15:58:26.170Z,37.96
2018-05-23T15:59:26.096Z,38.35
2018-05-23T16:01:19.393Z,37.87
2018-05-23T16:02:19.332Z,37.87
2018-05-23T16:04:12.746Z,38.06
2018-05-23T16:05:12.574Z,37.77
2018-05-23T16:07:05.893Z,37.87
2018-05-23T16:08:05.816Z,37.38
2018-05-23T16:09:59.106Z,38.45
2018-05-23T16:10:59.052Z,38.64
2018-05-23T16:12:52.361Z,38.06
2018-05-23T16:13:52.287Z,37.96
2018-05-23T16:15:45.679Z,37.96
2018-05-23T16:16:45.525Z,38.25
2018-05-23T16:18:38.836Z,37.87
2018-05-23T16:19:38.761Z,38.64
2018-05-23T16:21:32.053Z,37.30
2018-05-23T16:22:31.999Z,37.57
2018-05-23T16:24:25.354Z,38.04
2018-05-23T16:25:25.277Z,38.04
2018-05-23T16:27:18.691Z,37.57
2018-05-23T16:28:18.518Z,37.19
2018-05-23T16:30:12.805Z,37.87
2018-05-23T16:31:12.751Z,37.87
2018-05-23T16:33:06.063Z,37.67
2018-05-23T16:34:05.989Z,37.28
2018-05-23T16:35:59.378Z,37.28
2018-05-23T16:36:59.277Z,37.38
2018-05-23T16:38:52.589Z,37.48
2018-05-23T16:39:52.516Z,37.19
2018-05-23T16:41:45.807Z,37.09
2018-05-23T16:42:45.752Z,36.90
2018-05-23T16:44:39.061Z,36.70
2018-05-23T16:45:38.988Z,36.80
2018-05-23T16:47:32.292Z,36.60
2018-05-23T16:48:32.215Z,36.70
2018-05-23T16:50:25.510Z,36.51
2018-05-23T16:51:25.454Z,36.02
2018-05-23T16:53:18.762Z,36.70
2018-05-23T16:54:18.689Z,36.70
2018-05-23T16:56:11.980Z,36.51
2018-05-23T16:57:11.932Z,36.80
2018-05-23T16:59:05.226Z,37.38
2018-05-23T17:00:05.153Z,37.28
2018-05-23T17:01:58.472Z,37.38
2018-05-23T17:02:58.388Z,37.38
2018-05-23T17:04:52.700Z,37.38
2018-05-23T17:05:52.632Z,37.28
2018-05-23T17:07:45.927Z,37.28
2018-05-23T17:08:45.851Z,37.28
2018-05-23T17:10:40.145Z,37.09
2018-05-23T17:11:40.090Z,36.90
2018-05-23T17:13:34.399Z,36.68
2018-05-23T17:14:34.324Z,36.78
2018-05-23T17:16:27.618Z,36.78
2018-05-23T17:17:27.563Z,36.78
2018-05-23T17:19:21.973Z,36.80
2018-05-23T17:20:21.801Z,36.88
2018-05-23T17:22:15.090Z,37.07
2018-05-23T17:23:15.034Z,37.26
2018-05-23T17:25:08.444Z,37.36
2018-05-23T17:26:08.273Z,37.48
2018-05-23T17:28:01.572Z,37.38
2018-05-23T17:29:01.499Z,37.48
2018-05-23T17:30:54.780Z,37.38
2018-05-23T17:31:54.725Z,37.46
2018-05-23T17:33:48.036Z,37.55
2018-05-23T17:34:47.964Z,37.26
2018-05-23T17:36:41.332Z,37.82
2018-05-23T17:37:41.277Z,38.02
2018-05-23T17:39:34.588Z,38.04
2018-05-23T17:40:34.513Z,37.63
2018-05-23T17:42:27.926Z,37.44
2018-05-23T17:43:27.748Z,37.17
2018-05-23T17:45:21.158Z,37.24
2018-05-23T17:46:20.973Z,36.78
2018-05-23T17:48:14.287Z,36.57
2018-05-23T17:49:14.199Z,36.66
2018-05-23T17:51:07.591Z,36.86
2018-05-23T17:52:07.436Z,36.57
2018-05-23T17:54:00.777Z,35.41
2018-05-23T17:55:00.671Z,35.49
2018-05-23T17:56:53.966Z,36.38
2018-05-23T17:57:53.914Z,35.70
2018-05-23T17:59:48.216Z,35.99
2018-05-23T18:00:48.141Z,35.88
2018-05-23T18:02:41.551Z,36.65
2018-05-23T18:03:41.379Z,35.97
2018-05-23T18:05:34.665Z,36.65
2018-05-23T18:06:34.677Z,36.36
2018-05-23T18:08:27.911Z,36.94
2018-05-23T18:09:27.842Z,36.55
2018-05-23T18:11:21.155Z,36.84
2018-05-23T18:12:21.096Z,36.94
2018-05-23T18:14:14.422Z,37.23
2018-05-23T18:15:14.328Z,37.52
2018-05-23T18:17:07.628Z,37.32
2018-05-23T18:18:07.568Z,37.32
2018-05-23T18:20:01.900Z,37.52
2018-05-23T18:21:01.825Z,37.21
2018-05-23T18:22:55.133Z,37.79
2018-05-23T18:23:55.058Z,37.98
2018-05-23T18:25:48.444Z,37.98
2018-05-23T18:26:48.294Z,38.28
2018-05-23T18:28:41.599Z,38.46
2018-05-23T18:29:41.536Z,38.08
2018-05-23T18:31:34.815Z,39.04
2018-05-23T18:32:34.756Z,38.08
2018-05-23T18:34:28.141Z,38.76
2018-05-23T18:35:27.979Z,38.74